Time;durP1;ratioP1;P1;durP2;ratioP2;P2;SDS_P1;SDS_P2;PMS_P1;PMS_P2;Temp;Humidity;BMP_temperature;BMP_pressure;BME280_temperature;BME280_humidity;BME280_pressure;Samples;Min_cycle;Max_cycle;Signal;HPM_P1;HPM_P2
2023/10/26 00:00:51;;;;;;;5.13;1.57;;;18.30;99.90;;;18.71;62.95;94117.34;4999117;28;20532;-60
2023/10/26 00:03:20;;;;;;;18.07;4.67;;;18.40;99.90;;;18.70;62.89;94107.72;4996069;28;20459;-62
2023/10/26 00:05:48;;;;;;;9.80;2.97;;;18.40;99.90;;;18.66;63.34;94127.81;4999018;28;20477;-62
2023/10/26 00:08:15;;;;;;;11.20;2.80;;;18.30;99.90;;;18.57;64.43;94137.84;5000244;28;20446;-61
2023/10/26 00:10:42;;;;;;;11.80;3.40;;;18.30;99.90;;;18.47;64.04;94132.97;5000621;28;20816;-61
2023/10/26 00:13:09;;;;;;;6.83;1.90;;;18.20;99.90;;;18.39;64.73;94119.88;4996653;28;20482;-61
2023/10/26 00:15:37;;;;;;;13.03;3.00;;;18.10;99.90;;;18.30;64.83;94121.91;4997860;28;20863;-60
2023/10/26 00:18:04;;;;;;;12.87;2.63;;;18.00;99.90;;;18.22;64.68;94120.28;4998949;28;20446;-60
2023/10/26 00:20:33;;;;;;;7.10;2.30;;;17.90;99.90;;;18.15;65.17;94119.47;4994893;28;20552;-61
2023/10/26 00:23:01;;;;;;;22.20;2.73;;;17.90;99.90;;;18.11;65.41;94110.25;5000770;28;20454;-61
2023/10/26 00:25:28;;;;;;;8.37;2.70;;;17.80;99.90;;;18.05;65.50;94103.09;5001823;28;20469;-61
2023/10/26 00:27:56;;;;;;;13.13;2.80;;;17.80;99.90;;;18.02;65.13;94122.13;4998951;28;20458;-62
2023/10/26 00:30:23;;;;;;;10.30;2.30;;;17.70;99.90;;;17.96;65.83;94121.09;4994979;28;20470;-61
2023/10/26 00:32:51;;;;;;;7.30;2.23;;;17.70;99.90;;;17.92;65.87;94123.34;4995693;28;21029;-60
2023/10/26 00:35:18;;;;;;;8.93;2.20;;;17.60;99.90;;;17.88;66.08;94119.47;4994339;28;20469;-61
2023/10/26 00:37:47;;;;;;;9.10;1.93;;;17.60;99.90;;;17.84;65.98;94118.19;5000182;28;20954;-61
2023/10/26 00:40:14;;;;;;;16.90;3.00;;;17.50;99.90;;;17.81;66.13;94123.09;4997638;28;20469;-61
2023/10/26 00:42:41;;;;;;;23.20;2.70;;;17.50;99.90;;;17.78;66.15;94126.16;5001119;28;20454;-61
2023/10/26 00:45:10;;;;;;;12.03;2.80;;;17.50;99.90;;;17.74;66.12;94125.75;4999486;28;20844;-61
2023/10/26 00:47:37;;;;;;;14.40;2.60;;;17.40;99.90;;;17.72;66.40;94131.28;4996645;28;20446;-61
2023/10/26 00:50:05;;;;;;;4.90;2.80;;;17.40;99.90;;;17.70;66.27;94120.00;5000083;28;20603;-61
2023/10/26 00:52:34;;;;;;;13.03;2.27;;;17.40;99.90;;;17.67;66.59;94127.56;4999372;28;20490;-61
2023/10/26 00:55:05;;;;;;;9.53;2.50;;;17.40;99.90;;;17.62;67.06;94124.72;4996631;28;20814;-60
2023/10/26 00:57:32;;;;;;;28.70;5.27;;;17.30;99.90;;;17.54;67.11;94128.38;5000234;28;20443;-61
2023/10/26 00:59:59;;;;;;;19.10;4.17;;;17.20;99.90;;;17.45;67.02;94125.06;4997059;28;20820;-62
2023/10/26 01:02:27;;;;;;;19.20;4.17;;;17.20;99.90;;;17.35;67.94;94119.31;4999698;28;20525;-62
2023/10/26 01:04:54;;;;;;;16.77;3.97;;;17.10;99.90;;;17.26;69.19;94109.88;4998427;28;20465;-62
2023/10/26 01:07:21;;;;;;;22.57;6.03;;;17.00;99.90;;;17.23;68.87;94110.28;4997220;28;20450;-61
2023/10/26 01:09:48;;;;;;;33.03;5.47;;;17.00;99.90;;;17.21;69.65;94113.13;4997805;28;20478;-60
2023/10/26 01:12:17;;;;;;;16.60;4.10;;;16.90;99.90;;;17.17;70.16;94112.72;5001863;28;20512;-61
2023/10/26 01:14:45;;;;;;;18.27;4.83;;;16.90;99.90;;;17.15;69.75;94104.13;4995272;28;20471;-61
2023/10/26 01:17:12;;;;;;;19.50;5.40;;;16.90;99.90;;;17.12;70.58;94099.22;5000374;28;20818;-63
2023/10/26 01:19:41;;;;;;;26.03;5.23;;;16.80;99.90;;;17.09;70.40;94099.63;4997522;28;20469;-61
2023/10/26 01:22:09;;;;;;;30.03;4.90;;;16.80;99.90;;;17.09;70.54;94110.25;4997725;28;20512;-61
2023/10/26 01:24:37;;;;;;;17.20;4.77;;;16.80;99.90;;;17.06;70.97;94100.03;4993681;28;20544;-61
2023/10/26 01:27:05;;;;;;;18.37;4.40;;;16.80;99.90;;;17.03;70.77;94105.72;5001068;28;20564;-61
2023/10/26 01:29:32;;;;;;;17.20;4.13;;;16.80;99.90;;;17.02;70.81;94112.06;4998067;28;20547;-61
2023/10/26 01:31:59;;;;;;;19.83;4.67;;;16.70;99.90;;;17.00;70.67;94106.13;4995855;28;20450;-62
2023/10/26 01:34:26;;;;;;;12.70;2.40;;;16.70;99.90;;;17.02;70.50;94104.09;4994196;28;20470;-61
2023/10/26 01:36:54;;;;;;;11.33;2.50;;;16.70;99.90;;;17.03;70.29;94105.72;4997809;28;21037;-61
2023/10/26 01:39:22;;;;;;;6.83;2.47;;;16.70;99.90;;;17.07;69.93;94106.13;4998620;28;20481;-60
2023/10/26 01:41:50;;;;;;;12.27;2.80;;;16.80;99.90;;;17.09;69.79;94104.94;4997033;28;20456;-62
2023/10/26 01:44:17;;;;;;;10.83;2.10;;;16.80;99.90;;;17.12;69.95;94098.41;4997468;28;20477;-62
2023/10/26 01:46:44;;;;;;;11.00;1.33;;;16.80;99.90;;;17.15;69.49;94104.13;4995060;28;20455;-61
2023/10/26 01:49:11;;;;;;;12.20;2.60;;;16.80;99.90;;;17.20;69.01;94095.56;4997177;28;20588;-63
2023/10/26 01:51:39;;;;;;;10.63;2.43;;;16.90;99.90;;;17.24;68.90;94090.66;4997669;28;20450;-60
2023/10/26 01:54:06;;;;;;;19.30;2.87;;;16.90;99.90;;;17.28;69.09;94095.38;4998970;28;20928;-59
2023/10/26 01:56:35;;;;;;;7.00;2.20;;;17.00;99.90;;;17.31;68.55;94091.50;4995738;28;20461;-62
2023/10/26 01:59:02;;;;;;;8.00;2.03;;;17.00;99.90;;;17.34;68.82;94094.56;4997102;28;21249;-61
2023/10/26 02:01:29;;;;;;;5.30;2.33;;;17.00;99.90;;;17.37;68.11;94096.03;4999482;28;20442;-61
2023/10/26 02:03:57;;;;;;;5.43;1.90;;;17.00;99.90;;;17.39;67.76;94093.97;4999189;28;20457;-61
2023/10/26 02:06:24;;;;;;;5.33;1.90;;;17.10;99.90;;;17.41;67.71;94097.25;4997365;28;20502;-62
2023/10/26 02:08:51;;;;;;;9.77;2.97;;;17.10;99.90;;;17.43;68.17;94103.19;4995489;28;20589;-62
2023/10/26 02:11:18;;;;;;;8.80;2.73;;;17.10;99.90;;;17.46;68.10;94102.78;4999930;28;20453;-61
2023/10/26 02:13:47;;;;;;;7.80;2.67;;;17.10;99.90;;;17.46;67.66;94105.47;4998846;28;20490;-61
2023/10/26 02:16:16;;;;;;;25.90;4.00;;;17.20;99.90;;;17.45;68.13;94111.78;4997936;28;20446;-61
2023/10/26 02:18:44;;;;;;;19.17;5.30;;;17.10;99.90;;;17.40;68.70;94100.94;4998372;28;20455;-62
2023/10/26 02:21:11;;;;;;;21.40;4.13;;;17.10;99.90;;;17.37;68.51;94114.63;5000150;28;20527;-60
2023/10/26 02:23:40;;;;;;;28.00;4.03;;;17.10;99.90;;;17.33;69.34;94108.06;4998787;28;20454;-60
2023/10/26 02:26:07;;;;;;;7.80;3.27;;;17.00;99.90;;;17.30;69.08;94100.50;4998852;28;21051;-61
2023/10/26 02:28:34;;;;;;;12.03;3.00;;;17.00;99.90;;;17.28;69.52;94097.22;4999350;28;20775;-62
2023/10/26 02:31:03;;;;;;;21.33;4.70;;;17.00;99.90;;;17.25;69.50;94094.97;5000138;28;20527;-62
2023/10/26 02:33:31;;;;;;;16.10;3.80;;;17.00;99.90;;;17.22;69.92;94082.88;4997675;28;20710;-61
2023/10/26 02:35:58;;;;;;;19.40;4.30;;;16.90;99.90;;;17.19;69.81;94083.28;4999335;28;20527;-61
2023/10/26 02:38:25;;;;;;;14.20;3.03;;;16.90;99.90;;;17.15;70.02;94087.34;4999469;28;20446;-61
2023/10/26 02:40:52;;;;;;;12.93;3.40;;;16.80;99.90;;;17.10;69.86;94089.81;4995302;28;20473;-61
2023/10/26 02:43:20;;;;;;;10.10;2.60;;;16.80;99.90;;;17.02;69.79;94090.78;4999927;28;20473;-61
2023/10/26 02:45:47;;;;;;;15.27;4.50;;;16.80;99.90;;;16.94;70.08;94096.28;4994144;28;20536;-61
2023/10/26 02:48:16;;;;;;;9.47;3.10;;;16.70;99.90;;;16.90;70.64;94097.69;4996507;28;20453;-61
2023/10/26 02:50:43;;;;;;;19.47;4.50;;;16.70;99.90;;;16.87;70.19;94090.13;4997463;28;20863;-61
2023/10/26 02:53:10;;;;;;;19.87;3.23;;;16.60;99.90;;;16.84;70.88;94092.13;4998861;28;20497;-60
2023/10/26 02:55:38;;;;;;;18.07;3.30;;;16.60;99.90;;;16.82;70.54;94086.22;4996236;28;20479;-60
2023/10/26 02:58:05;;;;;;;8.10;2.47;;;16.60;99.90;;;16.81;70.79;94092.53;4996725;28;20516;-60
2023/10/26 03:00:32;;;;;;;16.33;3.33;;;16.60;99.90;;;16.81;70.63;94091.72;5001747;28;20515;-62
2023/10/26 03:02:59;;;;;;;16.17;3.33;;;16.60;99.90;;;16.81;70.99;94102.34;4995923;28;20505;-61
2023/10/26 03:05:29;;;;;;;11.97;2.80;;;16.50;99.90;;;16.81;70.74;94105.00;5000623;28;20470;-62
2023/10/26 03:07:57;;;;;;;9.67;2.60;;;16.50;99.90;;;16.81;71.04;94099.69;5003404;28;20468;-61
2023/10/26 03:10:24;;;;;;;14.93;3.53;;;16.50;99.90;;;16.81;70.91;94092.53;4996105;28;20970;-60
2023/10/26 03:12:52;;;;;;;11.50;3.37;;;16.50;99.90;;;16.82;71.15;94107.47;5000430;28;20496;-62
2023/10/26 03:15:19;;;;;;;9.47;3.30;;;16.50;99.90;;;16.80;70.89;94090.88;5002963;28;20473;-62
2023/10/26 03:17:47;;;;;;;20.40;4.00;;;16.50;99.90;;;16.82;71.27;94093.34;5004346;28;20465;-59
2023/10/26 03:20:14;;;;;;;13.80;3.50;;;16.50;99.90;;;16.82;71.12;94088.03;4999401;28;20497;-63
2023/10/26 03:22:42;;;;;;;16.27;3.30;;;16.50;99.90;;;16.79;71.19;94094.56;4998273;28;21160;-61
2023/10/26 03:25:13;;;;;;;18.33;3.30;;;16.50;99.90;;;16.81;71.00;94091.72;5001895;28;20470;-62
2023/10/26 03:27:41;;;;;;;14.07;3.20;;;16.50;99.90;;;16.79;71.40;94099.03;5004334;28;20477;-62
2023/10/26 03:30:09;;;;;;;8.63;3.20;;;16.50;99.90;;;16.79;71.39;94094.56;4997478;28;20505;-61
2023/10/26 03:32:37;;;;;;;15.67;3.10;;;16.50;99.90;;;16.79;70.92;94094.56;5002360;28;20453;-62
2023/10/26 03:35:05;;;;;;;13.33;3.47;;;16.50;99.90;;;16.77;71.07;94091.28;4998494;28;20529;-62
2023/10/26 03:37:32;;;;;;;18.30;4.20;;;16.50;99.90;;;16.77;70.88;94095.78;5000956;28;20453;-63
2023/10/26 03:40:01;;;;;;;18.53;3.30;;;16.50;99.90;;;16.77;70.90;94090.47;4999685;28;20991;-61
2023/10/26 03:42:28;;;;;;;17.00;3.90;;;16.50;99.90;;;16.76;70.98;94091.47;4996519;28;20923;-62
2023/10/26 03:44:55;;;;;;;16.27;4.37;;;16.50;99.90;;;16.71;71.37;94078.78;4999561;28;21014;-61
2023/10/26 03:47:23;;;;;;;27.10;4.87;;;16.40;99.90;;;16.67;71.36;94080.22;4997545;28;20501;-62
2023/10/26 03:49:51;;;;;;;13.27;4.63;;;16.40;99.90;;;16.62;71.48;94072.84;4996814;28;20890;-62
2023/10/26 03:52:19;;;;;;;16.33;4.60;;;16.40;99.90;;;16.59;71.54;94073.22;4994603;28;20463;-61
2023/10/26 03:54:47;;;;;;;18.13;4.73;;;16.30;99.90;;;16.56;71.77;94073.63;4999229;28;20942;-63
2023/10/26 03:57:16;;;;;;;17.00;5.60;;;16.30;99.90;;;16.55;71.89;94060.53;5001286;28;20454;-62
2023/10/26 03:59:43;;;;;;;18.33;4.43;;;16.30;99.90;;;16.54;71.91;94064.22;4997908;28;20486;-62
2023/10/26 04:02:11;;;;;;;22.83;4.57;;;16.30;99.90;;;16.50;72.02;94053.16;4995107;28;20512;-61
2023/10/26 04:04:38;;;;;;;15.03;4.73;;;16.30;99.90;;;16.51;71.73;94053.97;4997963;28;20515;-63
2023/10/26 04:07:07;;;;;;;19.67;3.23;;;16.20;99.90;;;16.48;72.57;94053.38;4996215;28;20450;-64
2023/10/26 04:09:35;;;;;;;17.37;4.53;;;16.20;99.90;;;16.46;72.39;94055.38;4999933;28;20538;-62
2023/10/26 04:12:02;;;;;;;18.83;3.97;;;16.20;99.90;;;16.45;72.50;94055.56;5002353;28;20873;-63
2023/10/26 04:14:33;;;;;;;12.77;3.97;;;16.20;99.90;;;16.42;72.13;94048.84;5000704;28;21499;-61
2023/10/26 04:17:00;;;;;;;24.40;5.80;;;16.20;99.90;;;16.40;72.49;94053.50;4998536;28;20485;-60
2023/10/26 04:19:28;;;;;;;13.40;3.97;;;16.10;99.90;;;16.38;72.36;94055.53;5000799;28;20505;-61
2023/10/26 04:21:55;;;;;;;14.27;4.30;;;16.10;99.90;;;16.36;72.55;94057.59;4997993;28;20455;-63
2023/10/26 04:24:23;;;;;;;12.40;4.60;;;16.10;99.90;;;16.34;72.58;94069.41;5000282;28;20509;-62
2023/10/26 04:26:50;;;;;;;16.90;5.27;;;16.10;99.90;;;16.31;72.54;94066.13;4993960;28;20450;-62
2023/10/26 04:29:18;;;;;;;12.83;4.50;;;16.00;99.90;;;16.31;72.76;94065.28;5001578;28;20469;-62
2023/10/26 04:31:47;;;;;;;27.77;5.63;;;16.00;99.90;;;16.30;72.87;94063.69;4995513;28;20497;-62
2023/10/26 04:34:15;;;;;;;24.47;5.40;;;16.00;99.90;;;16.28;72.86;94061.22;4997229;28;20501;-62
2023/10/26 04:36:42;;;;;;;12.43;5.20;;;16.00;99.90;;;16.24;72.63;94061.81;5000463;28;20465;-62
2023/10/26 04:39:10;;;;;;;18.53;5.27;;;16.00;99.90;;;16.19;73.03;94059.72;4997126;28;20527;-63
2023/10/26 04:41:37;;;;;;;21.50;4.83;;;16.00;99.90;;;16.19;73.07;94069.50;4997776;28;20868;-61
2023/10/26 04:44:06;;;;;;;20.90;5.73;;;15.90;99.90;;;16.16;73.23;94068.06;5000626;28;20501;-63
2023/10/26 04:46:34;;;;;;;23.93;6.60;;;15.90;99.90;;;16.15;73.51;94073.56;4996675;28;20452;-62
2023/10/26 04:49:03;;;;;;;21.57;6.53;;;15.90;99.90;;;16.15;73.74;94073.56;4999632;28;20528;-63
2023/10/26 04:51:32;;;;;;;20.70;5.30;;;15.90;99.90;;;16.15;73.38;94068.28;4994424;28;20477;-63
2023/10/26 04:53:59;;;;;;;19.33;8.60;;;15.90;99.90;;;16.12;73.33;94067.63;5000243;28;20580;-63
2023/10/26 04:56:26;;;;;;;20.63;8.33;;;15.90;99.90;;;16.09;73.51;94057.41;5001352;28;20835;-63
2023/10/26 04:58:54;;;;;;;16.40;8.60;;;15.80;99.90;;;16.08;73.42;94092.91;4998772;28;20462;-62
2023/10/26 05:01:21;;;;;;;27.37;7.03;;;15.80;99.90;;;16.04;73.88;94081.03;5001288;28;20504;-64
2023/10/26 05:03:49;;;;;;;37.00;10.13;;;15.80;99.90;;;16.02;73.81;94068.97;5007582;28;20441;-62
2023/10/26 05:06:17;;;;;;;16.60;7.70;;;15.80;99.90;;;16.05;73.57;94079.19;4999493;28;20881;-64
2023/10/26 05:08:46;;;;;;;17.33;6.03;;;15.80;99.90;;;16.03;73.52;94082.03;5001305;28;20974;-61
2023/10/26 05:11:13;;;;;;;15.23;5.57;;;15.80;99.90;;;16.01;73.92;94070.00;4999555;28;20694;-61
2023/10/26 05:13:40;;;;;;;17.13;7.13;;;15.80;99.90;;;16.00;74.03;94084.28;5001325;28;20563;-62
2023/10/26 05:16:08;;;;;;;31.10;6.70;;;15.80;99.90;;;16.00;73.98;94089.56;4997500;28;20959;-61
2023/10/26 05:18:35;;;;;;;22.73;6.33;;;15.80;99.90;;;15.99;74.12;94091.41;5000913;28;20460;-60
2023/10/26 05:21:02;;;;;;;20.90;6.40;;;15.70;99.90;;;15.99;74.03;94099.38;4997952;28;20450;-61
2023/10/26 05:23:31;;;;;;;21.90;6.47;;;15.70;99.90;;;16.04;74.09;94106.75;4999249;28;20457;-61
2023/10/26 05:25:58;;;;;;;22.53;7.27;;;15.80;99.90;;;16.06;74.63;94105.53;5000995;28;20466;-63
2023/10/26 05:28:26;;;;;;;19.20;6.97;;;15.80;99.90;;;16.10;73.58;94116.59;4999498;28;20824;-63
2023/10/26 05:30:53;;;;;;;27.77;6.77;;;15.80;99.90;;;16.11;73.90;94111.09;4998897;28;20466;-65
2023/10/26 05:33:20;;;;;;;18.17;6.47;;;15.90;99.90;;;16.15;73.97;94113.38;4997309;28;20454;-64
2023/10/26 05:35:47;;;;;;;17.33;6.40;;;15.90;99.90;;;16.20;73.95;94119.72;5000211;28;20486;-62
2023/10/26 05:38:18;;;;;;;22.03;8.23;;;15.90;99.90;;;16.27;73.91;94114.47;5001633;28;20450;-62
2023/10/26 05:40:52;;;;;;;18.43;5.87;;;16.00;99.90;;;16.40;74.10;94116.41;5000560;28;20470;-63
2023/10/26 05:43:19;;;;;;;23.03;7.30;;;16.10;99.90;;;16.53;73.93;94121.81;5002303;28;20458;-64
2023/10/26 05:45:46;;;;;;;21.90;6.47;;;16.20;99.90;;;16.71;73.32;94117.81;5001028;28;20489;-64
2023/10/26 05:48:14;;;;;;;39.83;8.93;;;16.40;99.90;;;16.87;73.31;94125.50;4998499;28;20463;-61
2023/10/26 05:50:42;;;;;;;25.33;8.60;;;16.60;99.90;;;17.01;73.30;94124.53;5000589;28;20485;-61
2023/10/26 05:53:09;;;;;;;30.27;7.90;;;16.70;99.90;;;17.28;73.35;94137.09;5001424;28;20453;-62
2023/10/26 05:55:36;;;;;;;24.83;6.93;;;16.90;99.90;;;17.54;72.57;94139.00;4999191;28;20501;-62
2023/10/26 05:58:05;;;;;;;21.10;7.53;;;17.10;99.90;;;17.79;72.03;94147.25;4999537;28;20461;-62
2023/10/26 06:00:32;;;;;;;15.33;6.10;;;17.40;99.90;;;17.99;70.87;94143.84;5001106;28;20482;-63
2023/10/26 06:03:00;;;;;;;26.57;7.07;;;17.50;99.90;;;18.13;70.74;94152.66;4998860;28;20455;-64
2023/10/26 06:05:28;;;;;;;31.57;7.10;;;17.70;99.90;;;18.23;70.07;94164.53;4998052;28;20991;-63
2023/10/26 06:07:55;;;;;;;31.60;6.73;;;17.90;99.90;;;18.41;70.17;94150.56;4999958;28;20454;-64
2023/10/26 06:10:22;;;;;;;23.37;7.20;;;18.00;99.90;;;18.60;69.13;94153.44;5000397;28;20480;-62
2023/10/26 06:12:50;;;;;;;30.40;6.53;;;18.20;99.90;;;18.78;68.22;94160.78;4997877;28;20458;-64
2023/10/26 06:15:19;;;;;;;20.27;6.47;;;18.40;99.90;;;18.89;67.83;94159.34;4999164;28;20563;-64
2023/10/26 06:17:46;;;;;;;24.00;6.63;;;18.40;99.90;;;18.95;67.99;94167.31;5000399;28;20934;-64
2023/10/26 06:20:14;;;;;;;23.03;6.50;;;18.60;99.90;;;18.98;67.57;94153.59;4999202;28;20540;-65
2023/10/26 06:22:41;;;;;;;24.37;6.33;;;18.60;99.90;;;19.06;67.28;94157.06;4999268;28;20457;-61
2023/10/26 06:25:09;;;;;;;23.27;6.20;;;18.70;99.90;;;19.13;66.91;94152.50;5000227;28;20474;-61
2023/10/26 06:27:37;;;;;;;17.23;6.30;;;18.80;99.90;;;19.17;67.05;94143.06;5000481;28;20457;-65
2023/10/26 06:30:06;;;;;;;30.80;7.73;;;18.80;99.90;;;19.22;66.69;94139.75;4998011;28;20562;-63
2023/10/26 06:32:36;;;;;;;26.37;6.23;;;18.80;99.90;;;19.23;66.55;94152.88;5000598;28;20450;-62
2023/10/26 06:35:04;;;;;;;22.90;6.37;;;18.80;99.90;;;19.23;66.26;94149.41;5004938;28;20489;-60
2023/10/26 06:37:31;;;;;;;20.97;6.87;;;18.90;99.90;;;19.25;66.76;94164.16;5003563;28;20461;-64
2023/10/26 06:39:58;;;;;;;24.10;6.60;;;18.90;99.90;;;19.37;66.50;94163.50;5001853;28;20564;-62
2023/10/26 06:42:25;;;;;;;22.87;7.40;;;19.00;99.90;;;19.57;66.00;94168.75;5004060;28;20488;-61
2023/10/26 06:44:52;;;;;;;24.90;7.37;;;19.10;99.90;;;19.70;65.59;94161.50;5004139;28;20477;-63
2023/10/26 06:47:20;;;;;;;32.70;10.07;;;19.20;99.90;;;19.77;65.37;94157.97;5001597;28;20947;-62
2023/10/26 06:49:48;;;;;;;19.93;6.87;;;19.40;99.90;;;19.79;65.02;94161.28;5002942;28;20535;-62
2023/10/26 06:52:16;;;;;;;21.23;8.07;;;19.40;99.90;;;19.78;64.90;94160.44;5004045;28;20449;-61
2023/10/26 06:54:43;;;;;;;20.30;7.27;;;19.40;99.90;;;19.78;64.87;94163.09;5002825;28;20544;-61
2023/10/26 06:57:10;;;;;;;39.87;9.20;;;19.50;99.90;;;19.78;64.79;94171.09;5005473;28;20445;-62
2023/10/26 06:59:37;;;;;;;28.07;7.80;;;19.40;99.90;;;19.75;64.45;94174.22;5001536;28;20486;-64
2023/10/26 07:02:05;;;;;;;17.00;8.30;;;19.40;99.90;;;19.69;64.73;94173.19;5001301;28;20453;-64
2023/10/26 07:04:32;;;;;;;34.13;10.30;;;19.40;99.90;;;19.64;64.72;94172.19;5003581;28;20469;-62
2023/10/26 07:07:01;;;;;;;24.13;8.40;;;19.40;99.90;;;19.60;64.58;94168.34;5002043;28;20935;-63
2023/10/26 07:09:28;;;;;;;26.80;8.50;;;19.30;99.90;;;19.49;64.69;94175.97;5004807;28;20504;-60
2023/10/26 07:11:55;;;;;;;23.60;9.53;;;19.30;99.90;;;19.46;65.18;94179.06;5001705;28;20451;-63
2023/10/26 07:14:22;;;;;;;30.57;8.90;;;19.20;99.90;;;19.51;64.80;94183.75;5001692;28;21084;-62
2023/10/26 07:16:50;;;;;;;33.77;9.73;;;19.20;99.90;;;19.56;65.39;94186.59;5003802;28;20791;-63
2023/10/26 07:19:17;;;;;;;23.20;9.97;;;19.30;99.90;;;19.65;64.98;94192.50;5002246;28;20519;-64
2023/10/26 07:21:45;;;;;;;35.07;9.23;;;19.30;99.90;;;19.77;64.77;94187.34;5000765;28;20451;-63
2023/10/26 07:24:14;;;;;;;44.50;9.87;;;19.40;99.90;;;19.84;64.56;94188.13;5003172;28;20548;-64
2023/10/26 07:26:41;;;;;;;29.97;8.30;;;19.50;99.90;;;19.85;64.29;94190.59;5003613;28;20454;-64
2023/10/26 07:29:09;;;;;;;27.13;8.83;;;19.50;99.90;;;19.83;64.26;94178.47;5001256;28;20580;-61
2023/10/26 07:31:36;;;;;;;20.87;7.80;;;19.50;99.90;;;19.81;64.25;94176.03;5001160;28;20568;-63
2023/10/26 07:34:03;;;;;;;24.60;9.43;;;19.50;99.90;;;19.81;64.19;94177.88;5002768;28;20470;-64
2023/10/26 07:36:31;;;;;;;27.17;7.93;;;19.50;99.90;;;19.80;64.17;94174.41;5001849;28;20528;-61
2023/10/26 07:38:59;;;;;;;28.10;8.40;;;19.50;99.90;;;19.74;64.10;94164.56;5000711;28;20518;-63
2023/10/26 07:41:28;;;;;;;29.70;8.77;;;19.40;99.90;;;19.70;64.43;94161.50;5002995;28;20450;-63
2023/10/26 07:43:56;;;;;;;29.60;9.23;;;19.40;99.90;;;19.66;64.58;94162.94;5002322;28;20879;-63
2023/10/26 07:46:23;;;;;;;27.93;8.40;;;19.30;99.90;;;19.62;64.42;94155.59;5000577;28;20962;-64
2023/10/26 07:48:50;;;;;;;29.30;8.20;;;19.30;99.90;;;19.58;64.95;94162.38;5001365;28;20450;-61
2023/10/26 07:51:17;;;;;;;22.30;8.77;;;19.30;99.90;;;19.56;65.19;94162.59;5003189;28;20543;-62
2023/10/26 07:53:45;;;;;;;32.53;8.60;;;19.20;99.90;;;19.59;65.45;94164.81;5001277;28;20791;-61
2023/10/26 07:56:12;;;;;;;22.90;7.67;;;19.20;99.90;;;19.60;65.74;94158.47;5000921;28;20497;-63
2023/10/26 07:58:41;;;;;;;24.87;6.50;;;19.20;99.90;;;19.64;66.29;94154.34;5000242;28;20481;-60
2023/10/26 08:01:10;;;;;;;33.60;6.87;;;19.30;99.90;;;19.73;65.77;94164.78;5000703;28;20451;-64
2023/10/26 08:03:37;;;;;;;17.23;6.10;;;19.40;99.90;;;19.81;65.50;94153.88;5002645;28;20898;-61
2023/10/26 08:06:06;;;;;;;14.00;4.47;;;19.40;99.90;;;19.90;65.22;94157.09;4999932;28;20518;-61
2023/10/26 08:08:34;;;;;;;21.50;4.70;;;19.50;99.90;;;19.99;64.75;94156.63;5002965;28;20528;-64
2023/10/26 08:11:09;;;;;;;20.03;4.60;;;19.60;99.90;;;20.15;62.62;94151.78;5001275;28;20994;-61
2023/10/26 08:13:36;;;;;;;13.80;3.23;;;19.70;99.90;;;20.35;61.90;94149.78;5000752;28;20517;-62
2023/10/26 08:16:05;;;;;;;24.00;3.87;;;19.90;99.90;;;20.60;61.34;94140.94;5001333;28;20850;-62
2023/10/26 08:18:33;;;;;;;14.37;3.37;;;20.10;99.90;;;20.78;60.00;94132.97;5002575;28;20564;-60
2023/10/26 08:21:02;;;;;;;19.57;2.80;;;20.30;99.50;;;20.96;59.69;94134.03;5001280;28;20482;-61
2023/10/26 08:23:30;;;;;;;18.83;4.30;;;20.50;99.20;;;21.10;59.17;94124.81;4999866;28;20446;-64
2023/10/26 08:25:57;;;;;;;35.03;3.80;;;20.70;98.70;;;21.21;58.29;94123.25;5002054;28;20485;-63
2023/10/26 08:28:24;;;;;;;13.23;4.27;;;20.80;98.10;;;21.29;58.51;94127.50;5002158;28;20457;-64
2023/10/26 08:30:54;;;;;;;15.60;5.20;;;20.90;97.50;;;21.45;57.26;94121.50;4999786;28;20470;-64
2023/10/26 08:33:22;;;;;;;27.90;4.43;;;21.10;96.90;;;21.86;56.85;94121.81;5000389;28;20911;-63
2023/10/26 08:35:50;;;;;;;14.43;3.10;;;21.40;96.80;;;22.44;55.58;94106.91;5002535;28;20551;-62
2023/10/26 08:38:17;;;;;;;17.70;3.90;;;21.80;95.10;;;22.91;53.85;94106.91;5000720;28;20529;-64
2023/10/26 08:40:51;;;;;;;18.33;4.63;;;22.20;94.00;;;23.12;53.36;94117.28;4999783;28;20552;-65
2023/10/26 08:43:18;;;;;;;7.43;2.70;;;22.50;93.50;;;23.23;53.80;94111.06;5000939;28;20489;-63
2023/10/26 08:45:45;;;;;;;15.90;4.70;;;22.70;93.10;;;23.29;53.64;94107.44;5002659;28;20556;-63
2023/10/26 08:48:16;;;;;;;16.20;3.50;;;22.80;93.10;;;23.32;53.15;94101.59;5001004;28;20451;-62
2023/10/26 08:50:45;;;;;;;10.50;3.10;;;22.90;92.60;;;23.33;51.05;94107.78;4999641;28;20553;-64
2023/10/26 08:53:13;;;;;;;12.90;3.40;;;22.90;89.80;;;23.20;51.72;94100.81;5001665;28;20561;-61
2023/10/26 08:55:40;;;;;;;16.03;3.20;;;22.80;90.20;;;23.13;51.07;94105.47;5000857;28;20504;-65
2023/10/26 08:58:08;;;;;;;13.00;2.57;;;22.80;89.10;;;23.22;50.85;94096.00;4999333;28;20450;-63
2023/10/26 09:00:36;;;;;;;19.30;2.93;;;22.90;88.20;;;23.54;50.86;94085.63;5000730;28;20482;-64
2023/10/26 09:03:04;;;;;;;12.70;3.03;;;23.10;89.40;;;24.29;50.24;94091.81;5000933;28;20472;-62
2023/10/26 09:05:31;;;;;;;14.90;3.90;;;23.70;89.70;;;25.04;48.46;94091.56;5000076;28;20470;-61
2023/10/26 09:08:03;;;;;;;22.53;3.97;;;24.30;85.30;;;25.66;47.44;94085.06;4999353;28;20454;-63
2023/10/26 09:10:31;;;;;;;13.77;3.27;;;24.90;83.20;;;26.34;44.35;94081.13;5001114;28;20473;-61
2023/10/26 09:13:00;;;;;;;17.53;3.60;;;25.60;77.40;;;26.97;44.96;94075.88;5001969;28;20500;-62
2023/10/26 09:15:27;;;;;;;13.87;3.17;;;26.10;78.10;;;27.65;43.66;94075.09;4999642;28;21030;-62
2023/10/26 09:17:57;;;;;;;15.47;3.87;;;26.80;75.20;;;28.25;39.89;94062.78;5003010;28;20449;-63
2023/10/26 09:20:26;;;;;;;9.47;3.17;;;27.40;69.00;;;28.56;39.36;94072.78;4999143;28;20470;-61
2023/10/26 09:22:53;;;;;;;13.93;3.40;;;27.80;64.40;;;28.73;39.50;94073.31;4999522;28;20449;-61
2023/10/26 09:25:22;;;;;;;18.80;2.80;;;28.10;65.10;;;28.72;39.89;94070.88;5001583;28;20961;-61
2023/10/26 09:27:49;;;;;;;14.00;3.10;;;28.00;63.60;;;28.51;39.96;94086.31;5000373;28;20457;-63
2023/10/26 09:30:27;;;;;;;17.50;2.80;;;28.00;63.00;;;28.48;37.49;94079.53;4998610;28;20470;-65
2023/10/26 09:32:55;;;;;;;18.13;2.80;;;27.90;60.90;;;28.68;39.43;94059.81;4998027;28;20512;-63
2023/10/26 09:35:28;;;;;;;16.20;3.00;;;28.10;61.60;;;28.83;38.57;94064.38;4998240;28;20559;-64
2023/10/26 09:37:55;;;;;;;17.10;2.87;;;28.10;60.80;;;28.59;38.84;94064.94;4998817;28;20833;-62
2023/10/26 09:40:25;;;;;;;19.07;3.60;;;28.00;60.70;;;28.28;40.06;94057.91;4999021;28;20485;-63
2023/10/26 09:42:52;;;;;;;12.47;2.50;;;27.90;62.00;;;28.27;38.15;94054.38;4998963;28;20458;-63
2023/10/26 09:45:20;;;;;;;6.27;2.47;;;27.80;59.50;;;28.51;40.05;94065.47;5001223;28;20469;-62
2023/10/26 09:47:47;;;;;;;9.17;2.63;;;27.90;62.00;;;28.87;39.20;94060.03;4999544;28;20470;-61
2023/10/26 09:50:14;;;;;;;12.97;2.80;;;28.20;61.90;;;29.32;38.59;94063.69;4998753;28;20537;-62
2023/10/26 09:52:42;;;;;;;19.00;3.33;;;28.60;60.20;;;29.67;37.14;94061.91;5000711;28;20540;-61
2023/10/26 09:55:11;;;;;;;16.33;2.70;;;28.90;59.10;;;30.14;37.05;94056.22;5000390;28;20583;-62
2023/10/26 09:57:44;;;;;;;18.27;3.00;;;29.40;58.70;;;30.59;36.70;94035.25;4998532;28;20446;-64
2023/10/26 10:00:13;;;;;;;8.17;2.37;;;29.80;58.40;;;30.91;37.28;94042.78;4998248;28;20513;-62
2023/10/26 10:02:41;;;;;;;15.07;2.77;;;30.10;58.00;;;31.15;36.13;94041.19;4998046;28;20450;-64
2023/10/26 10:05:35;;;;;;;14.93;2.37;;;30.40;56.80;;;31.43;34.71;94031.34;4998942;28;20536;-61
2023/10/26 10:08:03;;;;;;;9.77;2.33;;;30.60;55.10;;;31.62;35.41;94012.34;5005179;28;20449;-62
2023/10/26 10:10:30;;;;;;;10.07;2.90;;;30.90;55.90;;;31.74;34.62;94031.75;5003818;28;20524;-64
2023/10/26 10:12:59;;;;;;;24.30;2.93;;;31.10;54.00;;;31.61;34.69;94021.63;5002269;28;21068;-62
2023/10/26 10:15:36;;;;;;;11.90;2.73;;;31.00;53.90;;;31.62;33.47;94017.78;5004627;28;20500;-62